Indian Springs, Nevada
Current Conditions -  °F | °C
As of 7:58 AM on Thursday 30 Oct 2014 (Local Time) from KINS Reporting Station
Clear Clear  
Wind Chill: 44°   Ceiling: Unl
Heat Index: 44°   Visibility: 10mi
Dew Point: 10°   Wind: 0mph
Humidity: 25%   Direction: NA
Pressure: 30.14"   Gusts: NA
Location:  36.57°N, 115.67°W
Report Text: KINS 301458Z AUTO 00000KT 10SM CLR 07/M12 A3014 RMK AO2 SLP187 T00651122 52007 $
Loading
Personal Weather Stations






























Interactive Weather Map
Tropical Storm Tracking
New forecast layout! Learn more

10-Day Weather Forecast

Advertisements
Track Severe Weather on mobile